sensor_id;sensor_type;location;lat;lon;timestamp;temperature;humidity
1570;DHT22;778;50.120;8.698;2023-05-02T00:00:11;15.30;99.90
1570;DHT22;778;50.120;8.698;2023-05-02T00:02:40;15.30;99.90
1570;DHT22;778;50.120;8.698;2023-05-02T00:05:09;15.20;99.90
1570;DHT22;778;50.120;8.698;2023-05-02T00:07:37;15.20;99.90
1570;DHT22;778;50.120;8.698;2023-05-02T00:10:06;15.20;99.90
1570;DHT22;778;50.120;8.698;2023-05-02T00:12:37;15.10;99.90
1570;DHT22;778;50.120;8.698;2023-05-02T00:15:06;15.10;99.90
1570;DHT22;778;50.120;8.698;2023-05-02T00:17:38;15.10;99.90
1570;DHT22;778;50.120;8.698;2023-05-02T00:20:08;15.10;99.90
1570;DHT22;778;50.120;8.698;2023-05-02T00:22:37;15.10;99.90
1570;DHT22;778;50.120;8.698;2023-05-02T00:25:07;15.10;99.90
1570;DHT22;778;50.120;8.698;2023-05-02T00:27:37;15.10;99.90
1570;DHT22;778;50.120;8.698;2023-05-02T00:30:07;14.90;99.90
1570;DHT22;778;50.120;8.698;2023-05-02T00:32:36;15.00;99.90
1570;DHT22;778;50.120;8.698;2023-05-02T00:35:06;15.00;99.90
1570;DHT22;778;50.120;8.698;2023-05-02T00:37:35;14.90;99.90
1570;DHT22;778;50.120;8.698;2023-05-02T00:40:04;14.90;99.90
1570;DHT22;778;50.120;8.698;2023-05-02T00:42:34;14.90;99.90
1570;DHT22;778;50.120;8.698;2023-05-02T00:45:04;14.90;99.90
1570;DHT22;778;50.120;8.698;2023-05-02T00:47:33;14.90;99.90
1570;DHT22;778;50.120;8.698;2023-05-02T00:50:02;14.90;99.90
1570;DHT22;778;50.120;8.698;2023-05-02T00:52:32;14.90;99.90
1570;DHT22;778;50.120;8.698;2023-05-02T00:55:01;14.80;99.90
1570;DHT22;778;50.120;8.698;2023-05-02T00:57:30;14.90;99.90
1570;DHT22;778;50.120;8.698;2023-05-02T01:00:00;14.90;99.90
1570;DHT22;778;50.120;8.698;2023-05-02T01:02:37;14.90;99.90
1570;DHT22;778;50.120;8.698;2023-05-02T01:05:14;14.90;99.90
1570;DHT22;778;50.120;8.698;2023-05-02T01:07:59;14.90;99.90
1570;DHT22;778;50.120;8.698;2023-05-02T01:10:41;14.80;99.90
1570;DHT22;778;50.120;8.698;2023-05-02T01:13:19;14.80;99.90
1570;DHT22;778;50.120;8.698;2023-05-02T01:15:50;14.70;99.90
1570;DHT22;778;50.120;8.698;2023-05-02T01:18:23;14.70;99.90
1570;DHT22;778;50.120;8.698;2023-05-02T01:20:58;14.60;99.90
1570;DHT22;778;50.120;8.698;2023-05-02T01:23:34;14.60;99.90
1570;DHT22;778;50.120;8.698;2023-05-02T01:26:15;14.50;99.90
1570;DHT22;778;50.120;8.698;2023-05-02T01:28:54;14.50;99.90
1570;DHT22;778;50.120;8.698;2023-05-02T01:31:28;14.50;99.90
1570;DHT22;778;50.120;8.698;2023-05-02T01:34:00;14.40;99.90
1570;DHT22;778;50.120;8.698;2023-05-02T01:36:31;14.40;99.90
1570;DHT22;778;50.120;8.698;2023-05-02T01:39:01;14.40;99.90
1570;DHT22;778;50.120;8.698;2023-05-02T01:41:31;14.30;99.90
1570;DHT22;778;50.120;8.698;2023-05-02T01:44:02;14.30;99.90
1570;DHT22;778;50.120;8.698;2023-05-02T01:46:35;14.20;99.90
1570;DHT22;778;50.120;8.698;2023-05-02T01:49:06;14.20;99.90
1570;DHT22;778;50.120;8.698;2023-05-02T01:51:42;14.20;99.90
1570;DHT22;778;50.120;8.698;2023-05-02T01:54:12;14.20;99.90
1570;DHT22;778;50.120;8.698;2023-05-02T01:56:42;14.10;99.90
1570;DHT22;778;50.120;8.698;2023-05-02T01:59:15;14.10;99.90
1570;DHT22;778;50.120;8.698;2023-05-02T02:01:47;14.10;99.90
1570;DHT22;778;50.120;8.698;2023-05-02T02:04:18;14.10;99.90
1570;DHT22;778;50.120;8.698;2023-05-02T02:06:52;14.10;99.90
1570;DHT22;778;50.120;8.698;2023-05-02T02:09:25;14.20;99.90
1570;DHT22;778;50.120;8.698;2023-05-02T02:11:58;14.20;99.90
1570;DHT22;778;50.120;8.698;2023-05-02T02:14:34;14.20;99.90
1570;DHT22;778;50.120;8.698;2023-05-02T02:17:09;14.20;99.90
1570;DHT22;778;50.120;8.698;2023-05-02T02:19:40;14.10;99.90
1570;DHT22;778;50.120;8.698;2023-05-02T02:22:12;14.10;99.90
1570;DHT22;778;50.120;8.698;2023-05-02T02:24:43;14.10;99.90
1570;DHT22;778;50.120;8.698;2023-05-02T02:27:11;14.10;99.90
1570;DHT22;778;50.120;8.698;2023-05-02T02:29:41;14.10;99.90
1570;DHT22;778;50.120;8.698;2023-05-02T02:32:11;14.10;99.90
1570;DHT22;778;50.120;8.698;2023-05-02T02:34:40;14.10;99.90
1570;DHT22;778;50.120;8.698;2023-05-02T02:37:13;14.10;99.90
1570;DHT22;778;50.120;8.698;2023-05-02T02:39:54;14.10;99.90
1570;DHT22;778;50.120;8.698;2023-05-02T02:42:32;14.00;99.90
1570;DHT22;778;50.120;8.698;2023-05-02T02:45:23;14.00;99.90
1570;DHT22;778;50.120;8.698;2023-05-02T02:48:11;14.00;99.90
1570;DHT22;778;50.120;8.698;2023-05-02T02:50:53;14.00;99.90
1570;DHT22;778;50.120;8.698;2023-05-02T02:53:33;14.10;99.90
1570;DHT22;778;50.120;8.698;2023-05-02T02:56:14;14.10;99.90
1570;DHT22;778;50.120;8.698;2023-05-02T02:58:48;14.10;99.90
1570;DHT22;778;50.120;8.698;2023-05-02T03:01:27;14.00;99.90
1570;DHT22;778;50.120;8.698;2023-05-02T03:03:58;14.00;99.90
1570;DHT22;778;50.120;8.698;2023-05-02T03:06:28;14.00;99.90
1570;DHT22;778;50.120;8.698;2023-05-02T03:08:57;14.00;99.90
1570;DHT22;778;50.120;8.698;2023-05-02T03:11:28;14.00;99.90
1570;DHT22;778;50.120;8.698;2023-05-02T03:13:57;13.90;99.90
1570;DHT22;778;50.120;8.698;2023-05-02T03:16:38;13.80;99.90
1570;DHT22;778;50.120;8.698;2023-05-02T03:19:11;13.90;99.90
1570;DHT22;778;50.120;8.698;2023-05-02T03:21:40;13.90;99.90
1570;DHT22;778;50.120;8.698;2023-05-02T03:24:16;13.90;99.90
1570;DHT22;778;50.120;8.698;2023-05-02T03:26:46;13.90;99.90
1570;DHT22;778;50.120;8.698;2023-05-02T03:29:18;13.90;99.90
1570;DHT22;778;50.120;8.698;2023-05-02T03:31:48;13.90;99.90
1570;DHT22;778;50.120;8.698;2023-05-02T03:34:19;13.90;99.90
1570;DHT22;778;50.120;8.698;2023-05-02T03:36:49;14.00;99.90
1570;DHT22;778;50.120;8.698;2023-05-02T03:39:19;14.00;99.90
1570;DHT22;778;50.120;8.698;2023-05-02T03:41:48;14.00;99.90
1570;DHT22;778;50.120;8.698;2023-05-02T03:44:19;14.00;99.90
1570;DHT22;778;50.120;8.698;2023-05-02T03:46:49;14.00;99.90
1570;DHT22;778;50.120;8.698;2023-05-02T03:49:17;13.90;99.90
1570;DHT22;778;50.120;8.698;2023-05-02T03:51:48;13.90;99.90
1570;DHT22;778;50.120;8.698;2023-05-02T03:54:22;13.90;99.90
1570;DHT22;778;50.120;8.698;2023-05-02T03:56:52;14.00;99.90
1570;DHT22;778;50.120;8.698;2023-05-02T03:59:31;13.90;99.90
1570;DHT22;778;50.120;8.698;2023-05-02T04:02:09;13.90;99.90
1570;DHT22;778;50.120;8.698;2023-05-02T04:04:42;13.80;99.90
1570;DHT22;778;50.120;8.698;2023-05-02T04:07:14;13.80;99.90
1570;DHT22;778;50.120;8.698;2023-05-02T04:09:49;13.80;99.90
1570;DHT22;778;50.120;8.698;2023-05-02T04:12:17;13.70;99.90
1570;DHT22;778;50.120;8.698;2023-05-02T04:14:48;13.60;99.90
1570;DHT22;778;50.120;8.698;2023-05-02T04:17:19;13.60;99.90
1570;DHT22;778;50.120;8.698;2023-05-02T04:19:49;13.50;99.90
1570;DHT22;778;50.120;8.698;2023-05-02T04:22:21;13.40;99.90
1570;DHT22;778;50.120;8.698;2023-05-02T04:24:54;13.40;99.90
1570;DHT22;778;50.120;8.698;2023-05-02T04:27:25;13.30;99.90
1570;DHT22;778;50.120;8.698;2023-05-02T04:29:54;13.30;99.90
1570;DHT22;778;50.120;8.698;2023-05-02T04:32:24;13.30;99.90
1570;DHT22;778;50.120;8.698;2023-05-02T04:34:54;13.30;99.90
1570;DHT22;778;50.120;8.698;2023-05-02T04:37:22;13.30;99.90
1570;DHT22;778;50.120;8.698;2023-05-02T04:39:51;13.30;99.90
1570;DHT22;778;50.120;8.698;2023-05-02T04:42:23;13.30;99.90
1570;DHT22;778;50.120;8.698;2023-05-02T04:44:58;13.40;99.90
1570;DHT22;778;50.120;8.698;2023-05-02T04:47:28;13.40;99.90
1570;DHT22;778;50.120;8.698;2023-05-02T04:49:57;13.50;99.90
1570;DHT22;778;50.120;8.698;2023-05-02T04:52:26;13.60;99.90
1570;DHT22;778;50.120;8.698;2023-05-02T04:54:54;13.70;99.90
1570;DHT22;778;50.120;8.698;2023-05-02T04:57:23;13.90;99.90
1570;DHT22;778;50.120;8.698;2023-05-02T04:59:55;13.90;99.90
1570;DHT22;778;50.120;8.698;2023-05-02T05:02:24;13.90;99.90
1570;DHT22;778;50.120;8.698;2023-05-02T05:04:56;13.90;99.90
1570;DHT22;778;50.120;8.698;2023-05-02T05:07:25;13.90;99.90
1570;DHT22;778;50.120;8.698;2023-05-02T05:09:54;14.00;99.90
1570;DHT22;778;50.120;8.698;2023-05-02T05:12:26;14.00;99.90
1570;DHT22;778;50.120;8.698;2023-05-02T05:14:54;14.00;99.90
1570;DHT22;778;50.120;8.698;2023-05-02T05:17:25;14.00;99.90
1570;DHT22;778;50.120;8.698;2023-05-02T05:19:53;14.00;99.90
1570;DHT22;778;50.120;8.698;2023-05-02T05:22:23;14.00;99.90
1570;DHT22;778;50.120;8.698;2023-05-02T05:24:52;14.00;99.90
1570;DHT22;778;50.120;8.698;2023-05-02T05:27:26;14.00;99.90
1570;DHT22;778;50.120;8.698;2023-05-02T05:29:55;14.00;99.90
1570;DHT22;778;50.120;8.698;2023-05-02T05:32:23;13.90;99.90
1570;DHT22;778;50.120;8.698;2023-05-02T05:34:52;13.90;99.90
1570;DHT22;778;50.120;8.698;2023-05-02T05:37:26;13.80;99.90
1570;DHT22;778;50.120;8.698;2023-05-02T05:39:56;13.80;99.90
1570;DHT22;778;50.120;8.698;2023-05-02T05:42:26;13.80;99.90
1570;DHT22;778;50.120;8.698;2023-05-02T05:44:59;13.70;99.90
1570;DHT22;778;50.120;8.698;2023-05-02T05:47:28;13.60;99.90
1570;DHT22;778;50.120;8.698;2023-05-02T05:49:57;13.60;99.90
1570;DHT22;778;50.120;8.698;2023-05-02T05:52:30;13.70;99.90
1570;DHT22;778;50.120;8.698;2023-05-02T05:55:00;13.60;99.90
1570;DHT22;778;50.120;8.698;2023-05-02T05:57:30;13.50;99.90
1570;DHT22;778;50.120;8.698;2023-05-02T05:59:59;13.60;99.90
1570;DHT22;778;50.120;8.698;2023-05-02T06:02:41;13.60;99.90
1570;DHT22;778;50.120;8.698;2023-05-02T06:05:17;13.60;99.90
1570;DHT22;778;50.120;8.698;2023-05-02T06:07:47;13.70;99.90
1570;DHT22;778;50.120;8.698;2023-05-02T06:10:15;13.70;99.90
1570;DHT22;778;50.120;8.698;2023-05-02T06:12:45;13.70;99.90
1570;DHT22;778;50.120;8.698;2023-05-02T06:15:17;13.80;99.90
1570;DHT22;778;50.120;8.698;2023-05-02T06:17:46;13.80;99.90
1570;DHT22;778;50.120;8.698;2023-05-02T06:20:14;13.70;99.90
1570;DHT22;778;50.120;8.698;2023-05-02T06:22:44;13.70;99.90
1570;DHT22;778;50.120;8.698;2023-05-02T06:25:14;13.70;99.90
1570;DHT22;778;50.120;8.698;2023-05-02T06:27:43;13.70;99.90
1570;DHT22;778;50.120;8.698;2023-05-02T06:30:12;13.60;99.90
1570;DHT22;778;50.120;8.698;2023-05-02T06:32:41;13.60;99.90
1570;DHT22;778;50.120;8.698;2023-05-02T06:35:10;13.60;99.90
1570;DHT22;778;50.120;8.698;2023-05-02T06:37:38;13.60;99.90
1570;DHT22;778;50.120;8.698;2023-05-02T06:40:08;13.50;99.90
1570;DHT22;778;50.120;8.698;2023-05-02T06:42:38;13.60;99.90
1570;DHT22;778;50.120;8.698;2023-05-02T06:45:07;13.50;99.90
1570;DHT22;778;50.120;8.698;2023-05-02T06:47:44;13.60;99.90
1570;DHT22;778;50.120;8.698;2023-05-02T06:50:12;13.60;99.90
1570;DHT22;778;50.120;8.698;2023-05-02T06:52:41;13.60;99.90
1570;DHT22;778;50.120;8.698;2023-05-02T06:55:09;13.70;99.90
1570;DHT22;778;50.120;8.698;2023-05-02T06:57:39;13.80;99.90
1570;DHT22;778;50.120;8.698;2023-05-02T07:00:09;13.80;99.90
1570;DHT22;778;50.120;8.698;2023-05-02T07:02:38;13.80;99.90
1570;DHT22;778;50.120;8.698;2023-05-02T07:05:07;13.90;99.90
1570;DHT22;778;50.120;8.698;2023-05-02T07:07:36;14.00;99.90
1570;DHT22;778;50.120;8.698;2023-05-02T07:10:05;14.20;99.90
1570;DHT22;778;50.120;8.698;2023-05-02T07:12:34;14.40;99.90
1570;DHT22;778;50.120;8.698;2023-05-02T07:15:05;14.60;99.90
1570;DHT22;778;50.120;8.698;2023-05-02T07:17:34;14.80;99.90
1570;DHT22;778;50.120;8.698;2023-05-02T07:20:03;15.00;99.90
1570;DHT22;778;50.120;8.698;2023-05-02T07:22:32;15.20;99.90
1570;DHT22;778;50.120;8.698;2023-05-02T07:25:01;15.30;99.90
1570;DHT22;778;50.120;8.698;2023-05-02T07:27:30;15.30;99.90
1570;DHT22;778;50.120;8.698;2023-05-02T07:29:58;15.30;99.90
1570;DHT22;778;50.120;8.698;2023-05-02T07:32:30;15.20;99.90
1570;DHT22;778;50.120;8.698;2023-05-02T07:34:58;15.10;99.90
1570;DHT22;778;50.120;8.698;2023-05-02T07:37:31;15.20;99.90
1570;DHT22;778;50.120;8.698;2023-05-02T07:40:01;15.10;99.90
1570;DHT22;778;50.120;8.698;2023-05-02T07:42:31;15.00;99.90
1570;DHT22;778;50.120;8.698;2023-05-02T07:44:59;15.00;99.90
1570;DHT22;778;50.120;8.698;2023-05-02T07:47:29;15.10;99.90
1570;DHT22;778;50.120;8.698;2023-05-02T07:49:57;15.20;99.90
1570;DHT22;778;50.120;8.698;2023-05-02T07:52:26;15.20;99.90
1570;DHT22;778;50.120;8.698;2023-05-02T07:54:55;15.10;99.90
1570;DHT22;778;50.120;8.698;2023-05-02T07:57:25;15.10;99.90
1570;DHT22;778;50.120;8.698;2023-05-02T07:59:53;15.10;99.90
1570;DHT22;778;50.120;8.698;2023-05-02T08:02:23;15.00;99.90
1570;DHT22;778;50.120;8.698;2023-05-02T08:04:53;15.00;99.90
1570;DHT22;778;50.120;8.698;2023-05-02T08:07:22;14.90;99.90
1570;DHT22;778;50.120;8.698;2023-05-02T08:09:50;14.90;99.90
1570;DHT22;778;50.120;8.698;2023-05-02T08:12:18;14.70;99.90
1570;DHT22;778;50.120;8.698;2023-05-02T08:14:47;14.70;99.90
1570;DHT22;778;50.120;8.698;2023-05-02T08:17:15;14.60;99.90
1570;DHT22;778;50.120;8.698;2023-05-02T08:19:44;14.60;99.90
1570;DHT22;778;50.120;8.698;2023-05-02T08:22:14;14.50;99.90
1570;DHT22;778;50.120;8.698;2023-05-02T08:24:42;14.50;99.90
1570;DHT22;778;50.120;8.698;2023-05-02T08:27:10;14.50;99.90
1570;DHT22;778;50.120;8.698;2023-05-02T08:29:39;14.60;99.90
1570;DHT22;778;50.120;8.698;2023-05-02T08:32:07;14.70;99.90
1570;DHT22;778;50.120;8.698;2023-05-02T08:34:36;14.80;99.90
1570;DHT22;778;50.120;8.698;2023-05-02T08:37:07;14.70;99.90
1570;DHT22;778;50.120;8.698;2023-05-02T08:39:37;14.70;99.90
1570;DHT22;778;50.120;8.698;2023-05-02T08:42:06;14.70;99.90
1570;DHT22;778;50.120;8.698;2023-05-02T08:44:35;14.90;99.90
1570;DHT22;778;50.120;8.698;2023-05-02T08:47:04;15.00;99.90
1570;DHT22;778;50.120;8.698;2023-05-02T08:49:34;15.10;99.90
1570;DHT22;778;50.120;8.698;2023-05-02T08:52:03;15.00;99.90
1570;DHT22;778;50.120;8.698;2023-05-02T08:54:37;15.10;99.90
1570;DHT22;778;50.120;8.698;2023-05-02T08:57:06;15.00;99.90
1570;DHT22;778;50.120;8.698;2023-05-02T08:59:34;15.00;99.90
1570;DHT22;778;50.120;8.698;2023-05-02T09:02:11;15.00;99.90
1570;DHT22;778;50.120;8.698;2023-05-02T09:04:51;15.00;99.90
1570;DHT22;778;50.120;8.698;2023-05-02T09:07:21;15.00;99.90
1570;DHT22;778;50.120;8.698;2023-05-02T09:09:51;15.00;99.90
1570;DHT22;778;50.120;8.698;2023-05-02T09:12:24;15.10;99.90
1570;DHT22;778;50.120;8.698;2023-05-02T09:15:09;15.20;99.90
1570;DHT22;778;50.120;8.698;2023-05-02T09:17:42;15.30;99.90
1570;DHT22;778;50.120;8.698;2023-05-02T09:20:12;15.20;99.90
1570;DHT22;778;50.120;8.698;2023-05-02T09:22:47;15.20;99.90
1570;DHT22;778;50.120;8.698;2023-05-02T09:25:18;15.30;99.90
1570;DHT22;778;50.120;8.698;2023-05-02T09:27:51;15.30;99.90
1570;DHT22;778;50.120;8.698;2023-05-02T09:30:22;15.30;99.90
1570;DHT22;778;50.120;8.698;2023-05-02T09:32:51;15.40;99.90
1570;DHT22;778;50.120;8.698;2023-05-02T09:35:22;15.40;99.90
1570;DHT22;778;50.120;8.698;2023-05-02T09:37:51;15.70;99.90
1570;DHT22;778;50.120;8.698;2023-05-02T09:40:23;16.00;99.90
1570;DHT22;778;50.120;8.698;2023-05-02T09:42:55;16.30;99.90
1570;DHT22;778;50.120;8.698;2023-05-02T09:45:24;16.40;99.90
1570;DHT22;778;50.120;8.698;2023-05-02T09:47:53;16.40;99.90
1570;DHT22;778;50.120;8.698;2023-05-02T09:50:37;16.60;99.90
1570;DHT22;778;50.120;8.698;2023-05-02T09:53:07;16.90;99.90
1570;DHT22;778;50.120;8.698;2023-05-02T09:55:39;17.10;99.90
1570;DHT22;778;50.120;8.698;2023-05-02T09:58:19;17.10;99.90
1570;DHT22;778;50.120;8.698;2023-05-02T10:00:49;17.40;99.90
1570;DHT22;778;50.120;8.698;2023-05-02T10:03:22;17.10;99.90
1570;DHT22;778;50.120;8.698;2023-05-02T10:05:52;17.20;99.90
1570;DHT22;778;50.120;8.698;2023-05-02T10:08:23;17.40;99.90
1570;DHT22;778;50.120;8.698;2023-05-02T10:10:55;17.60;99.90
1570;DHT22;778;50.120;8.698;2023-05-02T10:13:26;18.10;99.90
1570;DHT22;778;50.120;8.698;2023-05-02T10:15:59;18.60;99.90
1570;DHT22;778;50.120;8.698;2023-05-02T10:18:37;18.90;99.90
1570;DHT22;778;50.120;8.698;2023-05-02T10:21:10;18.90;99.90
1570;DHT22;778;50.120;8.698;2023-05-02T10:23:41;18.40;99.90
1570;DHT22;778;50.120;8.698;2023-05-02T10:26:13;18.20;99.90
1570;DHT22;778;50.120;8.698;2023-05-02T10:28:43;17.80;99.90
1570;DHT22;778;50.120;8.698;2023-05-02T10:31:12;17.90;99.90
1570;DHT22;778;50.120;8.698;2023-05-02T10:33:42;17.70;99.90
1570;DHT22;778;50.120;8.698;2023-05-02T10:36:11;18.10;99.90
1570;DHT22;778;50.120;8.698;2023-05-02T10:38:40;18.40;99.90
1570;DHT22;778;50.120;8.698;2023-05-02T10:41:13;18.30;99.90
1570;DHT22;778;50.120;8.698;2023-05-02T10:43:46;18.40;99.90
1570;DHT22;778;50.120;8.698;2023-05-02T10:46:31;19.10;99.90
1570;DHT22;778;50.120;8.698;2023-05-02T10:49:02;19.20;99.90
1570;DHT22;778;50.120;8.698;2023-05-02T10:51:32;18.80;99.60
1570;DHT22;778;50.120;8.698;2023-05-02T10:54:21;18.30;99.90
1570;DHT22;778;50.120;8.698;2023-05-02T10:57:05;18.00;99.90
1570;DHT22;778;50.120;8.698;2023-05-02T10:59:35;17.80;99.90
1570;DHT22;778;50.120;8.698;2023-05-02T11:02:06;17.80;99.90
1570;DHT22;778;50.120;8.698;2023-05-02T11:05:13;17.70;99.90
1570;DHT22;778;50.120;8.698;2023-05-02T11:07:41;18.10;99.90
1570;DHT22;778;50.120;8.698;2023-05-02T11:10:26;18.70;99.90
1570;DHT22;778;50.120;8.698;2023-05-02T11:12:57;19.30;96.20
1570;DHT22;778;50.120;8.698;2023-05-02T11:15:54;19.50;93.90
1570;DHT22;778;50.120;8.698;2023-05-02T11:18:23;19.50;93.50
1570;DHT22;778;50.120;8.698;2023-05-02T11:21:24;19.30;93.00
1570;DHT22;778;50.120;8.698;2023-05-02T11:24:36;19.20;93.40
1570;DHT22;778;50.120;8.698;2023-05-02T11:27:38;18.70;93.10
1570;DHT22;778;50.120;8.698;2023-05-02T11:30:11;18.70;92.80
1570;DHT22;778;50.120;8.698;2023-05-02T11:33:11;18.70;93.10
1570;DHT22;778;50.120;8.698;2023-05-02T11:35:45;18.70;93.00
1570;DHT22;778;50.120;8.698;2023-05-02T11:38:19;18.70;87.00
1570;DHT22;778;50.120;8.698;2023-05-02T11:40:56;18.90;88.20
1570;DHT22;778;50.120;8.698;2023-05-02T11:43:26;18.40;88.20
1570;DHT22;778;50.120;8.698;2023-05-02T11:46:00;18.40;89.40
1570;DHT22;778;50.120;8.698;2023-05-02T11:48:29;18.70;90.60
1570;DHT22;778;50.120;8.698;2023-05-02T11:50:59;18.80;91.60
1570;DHT22;778;50.120;8.698;2023-05-02T11:53:31;18.70;86.90
1570;DHT22;778;50.120;8.698;2023-05-02T11:56:02;18.60;87.00
1570;DHT22;778;50.120;8.698;2023-05-02T11:58:32;18.60;92.20
1570;DHT22;778;50.120;8.698;2023-05-02T12:01:12;18.70;91.40
1570;DHT22;778;50.120;8.698;2023-05-02T12:03:41;18.40;89.60
1570;DHT22;778;50.120;8.698;2023-05-02T12:06:11;18.30;90.70
1570;DHT22;778;50.120;8.698;2023-05-02T12:08:42;18.40;90.20
1570;DHT22;778;50.120;8.698;2023-05-02T12:11:12;18.50;91.40
1570;DHT22;778;50.120;8.698;2023-05-02T12:13:46;18.50;90.90
1570;DHT22;778;50.120;8.698;2023-05-02T12:16:17;18.30;87.60
1570;DHT22;778;50.120;8.698;2023-05-02T12:18:47;18.30;92.50
1570;DHT22;778;50.120;8.698;2023-05-02T12:21:16;18.10;90.90
1570;DHT22;778;50.120;8.698;2023-05-02T12:23:45;18.20;92.00
1570;DHT22;778;50.120;8.698;2023-05-02T12:26:17;18.20;91.60
1570;DHT22;778;50.120;8.698;2023-05-02T12:28:47;18.20;92.20
1570;DHT22;778;50.120;8.698;2023-05-02T12:31:18;18.20;91.60
1570;DHT22;778;50.120;8.698;2023-05-02T12:33:46;18.10;91.70
1570;DHT22;778;50.120;8.698;2023-05-02T12:36:18;18.10;92.90
1570;DHT22;778;50.120;8.698;2023-05-02T12:38:50;18.10;91.00
1570;DHT22;778;50.120;8.698;2023-05-02T12:41:30;18.20;94.10
1570;DHT22;778;50.120;8.698;2023-05-02T12:43:59;18.30;91.40
1570;DHT22;778;50.120;8.698;2023-05-02T12:46:29;18.40;93.40
1570;DHT22;778;50.120;8.698;2023-05-02T12:49:03;18.70;92.60
1570;DHT22;778;50.120;8.698;2023-05-02T12:51:34;18.90;90.80
1570;DHT22;778;50.120;8.698;2023-05-02T12:54:03;18.80;91.30
1570;DHT22;778;50.120;8.698;2023-05-02T12:56:38;18.90;89.60
1570;DHT22;778;50.120;8.698;2023-05-02T12:59:06;19.00;88.70
1570;DHT22;778;50.120;8.698;2023-05-02T13:01:36;19.10;90.40
1570;DHT22;778;50.120;8.698;2023-05-02T13:04:05;19.10;89.20
1570;DHT22;778;50.120;8.698;2023-05-02T13:06:33;19.10;86.40
1570;DHT22;778;50.120;8.698;2023-05-02T13:09:04;19.20;89.40
1570;DHT22;778;50.120;8.698;2023-05-02T13:11:33;19.20;91.30
1570;DHT22;778;50.120;8.698;2023-05-02T13:14:01;19.00;89.20
1570;DHT22;778;50.120;8.698;2023-05-02T13:16:31;18.60;90.20
1570;DHT22;778;50.120;8.698;2023-05-02T13:19:04;18.40;88.30
1570;DHT22;778;50.120;8.698;2023-05-02T13:21:32;18.20;92.00
1570;DHT22;778;50.120;8.698;2023-05-02T13:24:00;18.10;90.40
1570;DHT22;778;50.120;8.698;2023-05-02T13:26:30;18.00;90.50
1570;DHT22;778;50.120;8.698;2023-05-02T13:28:58;17.90;90.60
1570;DHT22;778;50.120;8.698;2023-05-02T13:31:27;17.80;90.40
1570;DHT22;778;50.120;8.698;2023-05-02T13:33:55;17.80;92.50
1570;DHT22;778;50.120;8.698;2023-05-02T13:36:25;17.70;91.20
1570;DHT22;778;50.120;8.698;2023-05-02T13:38:54;17.80;92.40
1570;DHT22;778;50.120;8.698;2023-05-02T13:41:22;17.80;92.50
1570;DHT22;778;50.120;8.698;2023-05-02T13:43:51;17.70;92.00
1570;DHT22;778;50.120;8.698;2023-05-02T13:46:20;17.80;92.70
1570;DHT22;778;50.120;8.698;2023-05-02T13:48:48;17.70;92.70
1570;DHT22;778;50.120;8.698;2023-05-02T13:51:16;17.70;92.20
1570;DHT22;778;50.120;8.698;2023-05-02T13:53:46;17.70;93.50
1570;DHT22;778;50.120;8.698;2023-05-02T13:56:14;17.70;93.30
1570;DHT22;778;50.120;8.698;2023-05-02T13:58:43;17.70;92.80
1570;DHT22;778;50.120;8.698;2023-05-02T14:01:11;17.70;93.80
1570;DHT22;778;50.120;8.698;2023-05-02T14:03:40;17.80;92.50
1570;DHT22;778;50.120;8.698;2023-05-02T14:06:08;17.90;93.30
1570;DHT22;778;50.120;8.698;2023-05-02T14:08:37;17.90;92.50
1570;DHT22;778;50.120;8.698;2023-05-02T14:11:07;18.00;92.70
1570;DHT22;778;50.120;8.698;2023-05-02T14:13:35;18.00;91.00
1570;DHT22;778;50.120;8.698;2023-05-02T14:16:04;18.00;91.30
1570;DHT22;778;50.120;8.698;2023-05-02T14:18:33;18.10;92.10
1570;DHT22;778;50.120;8.698;2023-05-02T14:21:01;18.20;92.40
1570;DHT22;778;50.120;8.698;2023-05-02T14:23:30;18.30;92.00
1570;DHT22;778;50.120;8.698;2023-05-02T14:25:58;18.30;91.90
1570;DHT22;778;50.120;8.698;2023-05-02T14:28:29;18.30;91.30
1570;DHT22;778;50.120;8.698;2023-05-02T14:30:58;18.20;88.80
1570;DHT22;778;50.120;8.698;2023-05-02T14:33:26;18.30;89.10
1570;DHT22;778;50.120;8.698;2023-05-02T14:35:54;18.40;90.00
1570;DHT22;778;50.120;8.698;2023-05-02T14:38:22;18.40;89.70
1570;DHT22;778;50.120;8.698;2023-05-02T14:40:51;18.30;89.20
1570;DHT22;778;50.120;8.698;2023-05-02T14:43:19;18.40;87.30
1570;DHT22;778;50.120;8.698;2023-05-02T14:45:49;18.40;90.30
1570;DHT22;778;50.120;8.698;2023-05-02T14:48:17;18.30;86.40
1570;DHT22;778;50.120;8.698;2023-05-02T14:50:46;18.20;87.20
1570;DHT22;778;50.120;8.698;2023-05-02T14:53:14;18.10;89.20
1570;DHT22;778;50.120;8.698;2023-05-02T14:55:43;18.10;90.20
1570;DHT22;778;50.120;8.698;2023-05-02T14:58:11;18.00;90.00
1570;DHT22;778;50.120;8.698;2023-05-02T15:00:46;17.90;90.40
1570;DHT22;778;50.120;8.698;2023-05-02T15:03:16;17.90;88.60
1570;DHT22;778;50.120;8.698;2023-05-02T15:05:45;17.80;86.40
1570;DHT22;778;50.120;8.698;2023-05-02T15:08:13;17.80;88.50
1570;DHT22;778;50.120;8.698;2023-05-02T15:10:41;17.70;86.20
1570;DHT22;778;50.120;8.698;2023-05-02T15:13:10;17.60;85.50
1570;DHT22;778;50.120;8.698;2023-05-02T15:15:38;17.50;87.00
1570;DHT22;778;50.120;8.698;2023-05-02T15:18:06;17.50;88.90
1570;DHT22;778;50.120;8.698;2023-05-02T15:20:36;17.40;90.60
1570;DHT22;778;50.120;8.698;2023-05-02T15:23:04;17.40;88.70
1570;DHT22;778;50.120;8.698;2023-05-02T15:25:33;17.40;90.80
1570;DHT22;778;50.120;8.698;2023-05-02T15:28:01;17.30;90.30
1570;DHT22;778;50.120;8.698;2023-05-02T15:30:30;17.30;90.60
1570;DHT22;778;50.120;8.698;2023-05-02T15:32:58;17.20;91.30
1570;DHT22;778;50.120;8.698;2023-05-02T15:35:26;17.10;91.40
1570;DHT22;778;50.120;8.698;2023-05-02T15:37:56;17.20;92.60
1570;DHT22;778;50.120;8.698;2023-05-02T15:40:25;17.10;91.50
1570;DHT22;778;50.120;8.698;2023-05-02T15:42:54;17.20;91.50
1570;DHT22;778;50.120;8.698;2023-05-02T15:45:22;17.20;91.10
1570;DHT22;778;50.120;8.698;2023-05-02T15:47:51;17.40;90.70
1570;DHT22;778;50.120;8.698;2023-05-02T15:50:19;17.40;91.50
1570;DHT22;778;50.120;8.698;2023-05-02T15:52:47;17.40;89.70
1570;DHT22;778;50.120;8.698;2023-05-02T15:55:18;17.50;89.80
1570;DHT22;778;50.120;8.698;2023-05-02T15:57:46;17.60;89.60
1570;DHT22;778;50.120;8.698;2023-05-02T16:00:18;17.70;88.10
1570;DHT22;778;50.120;8.698;2023-05-02T16:02:47;17.70;87.50
1570;DHT22;778;50.120;8.698;2023-05-02T16:05:15;17.80;90.00
1570;DHT22;778;50.120;8.698;2023-05-02T16:07:44;17.80;85.00
1570;DHT22;778;50.120;8.698;2023-05-02T16:10:12;17.80;87.20
1570;DHT22;778;50.120;8.698;2023-05-02T16:12:42;17.80;85.40
1570;DHT22;778;50.120;8.698;2023-05-02T16:15:11;17.80;84.10
1570;DHT22;778;50.120;8.698;2023-05-02T16:17:39;17.90;81.60
1570;DHT22;778;50.120;8.698;2023-05-02T16:20:10;17.80;83.30
1570;DHT22;778;50.120;8.698;2023-05-02T16:22:41;17.90;85.10
1570;DHT22;778;50.120;8.698;2023-05-02T16:25:12;18.00;81.80
1570;DHT22;778;50.120;8.698;2023-05-02T16:27:42;18.00;83.80
1570;DHT22;778;50.120;8.698;2023-05-02T16:30:11;17.90;82.60
1570;DHT22;778;50.120;8.698;2023-05-02T16:32:40;17.80;83.00
1570;DHT22;778;50.120;8.698;2023-05-02T16:35:09;17.80;80.70
1570;DHT22;778;50.120;8.698;2023-05-02T16:37:40;17.80;80.50
1570;DHT22;778;50.120;8.698;2023-05-02T16:40:09;17.70;79.00
1570;DHT22;778;50.120;8.698;2023-05-02T16:42:38;17.60;80.90